sensor_id;sensor_type;location;lat;lon;timestamp;temperature;humidity
15296;DHT22;7749;49.964;7.890;2023-06-10T00:02:28;20.80;1.00
15296;DHT22;7749;49.964;7.890;2023-06-10T00:04:56;20.80;1.00
15296;DHT22;7749;49.964;7.890;2023-06-10T00:07:24;20.70;1.00
15296;DHT22;7749;49.964;7.890;2023-06-10T00:09:52;20.60;1.00
15296;DHT22;7749;49.964;7.890;2023-06-10T00:12:19;20.60;1.00
15296;DHT22;7749;49.964;7.890;2023-06-10T00:14:47;20.70;1.00
15296;DHT22;7749;49.964;7.890;2023-06-10T00:17:17;20.60;3.70
15296;DHT22;7749;49.964;7.890;2023-06-10T00:19:44;20.60;1.00
15296;DHT22;7749;49.964;7.890;2023-06-10T00:22:14;20.50;99.90
15296;DHT22;7749;49.964;7.890;2023-06-10T00:24:41;20.50;73.60
15296;DHT22;7749;49.964;7.890;2023-06-10T00:27:09;20.50;95.70
15296;DHT22;7749;49.964;7.890;2023-06-10T00:29:36;20.50;99.90
15296;DHT22;7749;49.964;7.890;2023-06-10T00:32:04;20.40;99.90
15296;DHT22;7749;49.964;7.890;2023-06-10T00:34:32;20.30;1.00
15296;DHT22;7749;49.964;7.890;2023-06-10T00:36:59;20.30;1.00
15296;DHT22;7749;49.964;7.890;2023-06-10T00:39:27;20.30;1.00
15296;DHT22;7749;49.964;7.890;2023-06-10T00:41:54;20.20;1.00
15296;DHT22;7749;49.964;7.890;2023-06-10T00:44:21;20.20;1.00
15296;DHT22;7749;49.964;7.890;2023-06-10T00:46:49;20.10;99.90
15296;DHT22;7749;49.964;7.890;2023-06-10T00:49:18;20.00;99.90
15296;DHT22;7749;49.964;7.890;2023-06-10T00:51:46;20.00;99.90
15296;DHT22;7749;49.964;7.890;2023-06-10T00:54:13;19.90;99.90
15296;DHT22;7749;49.964;7.890;2023-06-10T00:56:41;19.90;99.90
15296;DHT22;7749;49.964;7.890;2023-06-10T00:59:10;19.80;99.90
15296;DHT22;7749;49.964;7.890;2023-06-10T01:01:37;19.70;99.90
15296;DHT22;7749;49.964;7.890;2023-06-10T01:04:06;19.70;99.90
15296;DHT22;7749;49.964;7.890;2023-06-10T01:09:31;19.70;99.90
15296;DHT22;7749;49.964;7.890;2023-06-10T01:12:26;19.60;99.90
15296;DHT22;7749;49.964;7.890;2023-06-10T01:14:56;19.60;99.90
15296;DHT22;7749;49.964;7.890;2023-06-10T01:17:26;19.60;99.90
15296;DHT22;7749;49.964;7.890;2023-06-10T01:19:55;19.50;1.00
15296;DHT22;7749;49.964;7.890;2023-06-10T01:22:27;19.50;99.90
15296;DHT22;7749;49.964;7.890;2023-06-10T01:24:59;19.50;99.90
15296;DHT22;7749;49.964;7.890;2023-06-10T01:27:30;19.50;99.90
15296;DHT22;7749;49.964;7.890;2023-06-10T01:30:12;19.50;99.90
15296;DHT22;7749;49.964;7.890;2023-06-10T01:32:48;19.50;99.90
15296;DHT22;7749;49.964;7.890;2023-06-10T01:35:17;19.50;99.90
15296;DHT22;7749;49.964;7.890;2023-06-10T01:37:46;19.40;99.90
15296;DHT22;7749;49.964;7.890;2023-06-10T01:40:16;19.40;99.90
15296;DHT22;7749;49.964;7.890;2023-06-10T01:42:43;19.40;99.90
15296;DHT22;7749;49.964;7.890;2023-06-10T01:45:11;19.40;99.90
15296;DHT22;7749;49.964;7.890;2023-06-10T01:47:38;19.40;99.90
15296;DHT22;7749;49.964;7.890;2023-06-10T01:50:06;19.30;99.90
15296;DHT22;7749;49.964;7.890;2023-06-10T01:52:33;19.30;99.90
15296;DHT22;7749;49.964;7.890;2023-06-10T01:55:01;19.30;99.90
15296;DHT22;7749;49.964;7.890;2023-06-10T01:57:28;19.20;99.90
15296;DHT22;7749;49.964;7.890;2023-06-10T01:59:56;19.20;99.90
15296;DHT22;7749;49.964;7.890;2023-06-10T02:02:23;19.20;99.90
15296;DHT22;7749;49.964;7.890;2023-06-10T02:04:52;19.20;99.90
15296;DHT22;7749;49.964;7.890;2023-06-10T02:07:19;19.20;1.00
15296;DHT22;7749;49.964;7.890;2023-06-10T02:09:46;19.10;1.00
15296;DHT22;7749;49.964;7.890;2023-06-10T02:12:14;19.00;1.00
15296;DHT22;7749;49.964;7.890;2023-06-10T02:14:44;18.90;99.90
15296;DHT22;7749;49.964;7.890;2023-06-10T02:17:11;18.90;99.90
15296;DHT22;7749;49.964;7.890;2023-06-10T02:19:40;18.90;99.90
15296;DHT22;7749;49.964;7.890;2023-06-10T02:22:10;18.90;99.90
15296;DHT22;7749;49.964;7.890;2023-06-10T02:24:37;18.90;1.00
15296;DHT22;7749;49.964;7.890;2023-06-10T02:27:08;18.90;1.00
15296;DHT22;7749;49.964;7.890;2023-06-10T02:29:35;18.80;1.00
15296;DHT22;7749;49.964;7.890;2023-06-10T02:32:03;18.80;1.00
15296;DHT22;7749;49.964;7.890;2023-06-10T02:34:30;18.80;1.00
15296;DHT22;7749;49.964;7.890;2023-06-10T02:36:58;18.80;1.00
15296;DHT22;7749;49.964;7.890;2023-06-10T02:39:25;18.80;99.90
15296;DHT22;7749;49.964;7.890;2023-06-10T02:41:52;18.80;99.90
15296;DHT22;7749;49.964;7.890;2023-06-10T02:44:20;18.80;99.90
15296;DHT22;7749;49.964;7.890;2023-06-10T02:46:47;18.70;99.90
15296;DHT22;7749;49.964;7.890;2023-06-10T02:49:15;18.70;99.90
15296;DHT22;7749;49.964;7.890;2023-06-10T02:51:42;18.70;99.90
15296;DHT22;7749;49.964;7.890;2023-06-10T02:54:09;18.70;99.90
15296;DHT22;7749;49.964;7.890;2023-06-10T02:56:40;18.70;99.90
15296;DHT22;7749;49.964;7.890;2023-06-10T02:59:09;18.80;99.90
15296;DHT22;7749;49.964;7.890;2023-06-10T03:01:36;18.70;68.70
15296;DHT22;7749;49.964;7.890;2023-06-10T03:04:05;18.70;99.90
15296;DHT22;7749;49.964;7.890;2023-06-10T03:06:33;18.70;99.90
15296;DHT22;7749;49.964;7.890;2023-06-10T03:09:01;18.70;99.40
15296;DHT22;7749;49.964;7.890;2023-06-10T03:11:30;18.70;99.90
15296;DHT22;7749;49.964;7.890;2023-06-10T03:13:57;18.50;99.90
15296;DHT22;7749;49.964;7.890;2023-06-10T03:16:24;18.40;99.90
15296;DHT22;7749;49.964;7.890;2023-06-10T03:18:57;18.40;99.90
15296;DHT22;7749;49.964;7.890;2023-06-10T03:21:25;18.40;99.90
15296;DHT22;7749;49.964;7.890;2023-06-10T03:23:55;18.40;99.90
15296;DHT22;7749;49.964;7.890;2023-06-10T03:26:23;18.30;1.00
15296;DHT22;7749;49.964;7.890;2023-06-10T03:28:50;18.10;1.00
15296;DHT22;7749;49.964;7.890;2023-06-10T03:31:18;18.10;1.00
15296;DHT22;7749;49.964;7.890;2023-06-10T03:33:45;18.10;1.00
15296;DHT22;7749;49.964;7.890;2023-06-10T03:36:12;18.00;1.00
15296;DHT22;7749;49.964;7.890;2023-06-10T03:38:43;17.90;1.00
15296;DHT22;7749;49.964;7.890;2023-06-10T03:41:11;17.80;1.00
15296;DHT22;7749;49.964;7.890;2023-06-10T03:43:38;17.70;1.00
15296;DHT22;7749;49.964;7.890;2023-06-10T03:46:07;17.60;1.00
15296;DHT22;7749;49.964;7.890;2023-06-10T03:48:35;17.60;1.00
15296;DHT22;7749;49.964;7.890;2023-06-10T03:51:03;17.60;1.00
15296;DHT22;7749;49.964;7.890;2023-06-10T03:53:30;17.60;1.00
15296;DHT22;7749;49.964;7.890;2023-06-10T03:55:58;17.60;1.00
15296;DHT22;7749;49.964;7.890;2023-06-10T03:58:25;17.60;1.00
15296;DHT22;7749;49.964;7.890;2023-06-10T04:00:53;17.60;1.00
15296;DHT22;7749;49.964;7.890;2023-06-10T04:03:22;17.60;1.00
15296;DHT22;7749;49.964;7.890;2023-06-10T04:05:50;17.60;1.00
15296;DHT22;7749;49.964;7.890;2023-06-10T04:08:17;17.60;1.00
15296;DHT22;7749;49.964;7.890;2023-06-10T04:10:45;17.60;1.00
15296;DHT22;7749;49.964;7.890;2023-06-10T04:13:12;17.70;1.00
15296;DHT22;7749;49.964;7.890;2023-06-10T04:15:41;17.70;1.00
15296;DHT22;7749;49.964;7.890;2023-06-10T04:18:09;17.70;1.00
15296;DHT22;7749;49.964;7.890;2023-06-10T04:20:38;17.80;1.00
15296;DHT22;7749;49.964;7.890;2023-06-10T04:23:06;17.70;1.00
15296;DHT22;7749;49.964;7.890;2023-06-10T04:25:33;17.80;1.00
15296;DHT22;7749;49.964;7.890;2023-06-10T04:28:01;17.80;1.00
15296;DHT22;7749;49.964;7.890;2023-06-10T04:30:29;17.80;1.00
15296;DHT22;7749;49.964;7.890;2023-06-10T04:32:58;17.80;1.00
15296;DHT22;7749;49.964;7.890;2023-06-10T04:35:26;17.80;1.00
15296;DHT22;7749;49.964;7.890;2023-06-10T04:37:56;17.90;1.00
15296;DHT22;7749;49.964;7.890;2023-06-10T04:40:23;18.10;1.00
15296;DHT22;7749;49.964;7.890;2023-06-10T04:42:51;18.10;1.00
15296;DHT22;7749;49.964;7.890;2023-06-10T04:45:19;18.20;1.00
15296;DHT22;7749;49.964;7.890;2023-06-10T04:47:46;18.20;1.00
15296;DHT22;7749;49.964;7.890;2023-06-10T04:50:13;18.20;1.00
15296;DHT22;7749;49.964;7.890;2023-06-10T04:52:41;18.30;1.00
15296;DHT22;7749;49.964;7.890;2023-06-10T04:55:08;18.30;1.00
15296;DHT22;7749;49.964;7.890;2023-06-10T04:57:37;18.40;1.00
15296;DHT22;7749;49.964;7.890;2023-06-10T05:00:05;18.40;1.00
15296;DHT22;7749;49.964;7.890;2023-06-10T05:02:33;18.30;1.00
15296;DHT22;7749;49.964;7.890;2023-06-10T05:05:01;18.30;1.00
15296;DHT22;7749;49.964;7.890;2023-06-10T05:07:28;18.40;1.00
15296;DHT22;7749;49.964;7.890;2023-06-10T05:09:55;18.50;1.00
15296;DHT22;7749;49.964;7.890;2023-06-10T05:12:24;18.50;1.00
15296;DHT22;7749;49.964;7.890;2023-06-10T05:14:52;18.50;1.00
15296;DHT22;7749;49.964;7.890;2023-06-10T05:17:19;18.50;1.00
15296;DHT22;7749;49.964;7.890;2023-06-10T05:19:47;18.40;1.00
15296;DHT22;7749;49.964;7.890;2023-06-10T05:22:14;18.60;1.00
15296;DHT22;7749;49.964;7.890;2023-06-10T05:24:44;18.60;1.00
15296;DHT22;7749;49.964;7.890;2023-06-10T05:27:11;18.60;1.00
15296;DHT22;7749;49.964;7.890;2023-06-10T05:29:39;18.60;1.00
15296;DHT22;7749;49.964;7.890;2023-06-10T05:32:07;18.60;1.00
15296;DHT22;7749;49.964;7.890;2023-06-10T05:34:37;18.60;1.00
15296;DHT22;7749;49.964;7.890;2023-06-10T05:37:05;18.80;1.00
15296;DHT22;7749;49.964;7.890;2023-06-10T05:39:32;18.90;1.00
15296;DHT22;7749;49.964;7.890;2023-06-10T05:42:00;18.90;1.00
15296;DHT22;7749;49.964;7.890;2023-06-10T05:44:32;19.10;1.00
15296;DHT22;7749;49.964;7.890;2023-06-10T05:47:03;19.00;1.00
15296;DHT22;7749;49.964;7.890;2023-06-10T05:49:30;19.10;99.90
15296;DHT22;7749;49.964;7.890;2023-06-10T05:51:58;19.10;99.90
15296;DHT22;7749;49.964;7.890;2023-06-10T05:54:26;19.20;99.90
15296;DHT22;7749;49.964;7.890;2023-06-10T05:56:56;19.30;99.90
15296;DHT22;7749;49.964;7.890;2023-06-10T05:59:23;19.30;99.90
15296;DHT22;7749;49.964;7.890;2023-06-10T06:01:51;19.40;99.90
15296;DHT22;7749;49.964;7.890;2023-06-10T06:04:18;19.60;1.00
15296;DHT22;7749;49.964;7.890;2023-06-10T06:06:46;19.70;1.00
15296;DHT22;7749;49.964;7.890;2023-06-10T06:09:14;19.60;1.00
15296;DHT22;7749;49.964;7.890;2023-06-10T06:11:42;19.70;1.00
15296;DHT22;7749;49.964;7.890;2023-06-10T06:14:09;19.80;1.00
15296;DHT22;7749;49.964;7.890;2023-06-10T06:16:38;19.90;99.90
15296;DHT22;7749;49.964;7.890;2023-06-10T06:19:06;20.00;99.90
15296;DHT22;7749;49.964;7.890;2023-06-10T06:21:33;20.00;99.90
15296;DHT22;7749;49.964;7.890;2023-06-10T06:24:01;20.10;1.00
15296;DHT22;7749;49.964;7.890;2023-06-10T06:26:28;20.10;99.90
15296;DHT22;7749;49.964;7.890;2023-06-10T06:28:56;20.20;1.00
15296;DHT22;7749;49.964;7.890;2023-06-10T06:31:29;20.40;1.00
15296;DHT22;7749;49.964;7.890;2023-06-10T06:33:57;20.50;1.00
15296;DHT22;7749;49.964;7.890;2023-06-10T06:36:25;20.50;1.00
15296;DHT22;7749;49.964;7.890;2023-06-10T06:38:52;20.50;1.00
15296;DHT22;7749;49.964;7.890;2023-06-10T06:41:20;20.60;1.00
15296;DHT22;7749;49.964;7.890;2023-06-10T06:43:49;20.60;99.90
15296;DHT22;7749;49.964;7.890;2023-06-10T06:46:16;20.60;1.00
15296;DHT22;7749;49.964;7.890;2023-06-10T06:48:44;20.90;1.00
15296;DHT22;7749;49.964;7.890;2023-06-10T06:51:12;21.00;99.90
15296;DHT22;7749;49.964;7.890;2023-06-10T06:53:40;21.10;99.90
15296;DHT22;7749;49.964;7.890;2023-06-10T06:56:13;21.20;1.00
15296;DHT22;7749;49.964;7.890;2023-06-10T06:58:41;21.50;1.00
15296;DHT22;7749;49.964;7.890;2023-06-10T07:01:10;21.70;1.00
15296;DHT22;7749;49.964;7.890;2023-06-10T07:03:37;21.80;9.70
15296;DHT22;7749;49.964;7.890;2023-06-10T07:06:05;21.90;1.00
15296;DHT22;7749;49.964;7.890;2023-06-10T07:08:32;21.90;99.90
15296;DHT22;7749;49.964;7.890;2023-06-10T07:10:59;21.90;1.00
15296;DHT22;7749;49.964;7.890;2023-06-10T07:13:27;22.10;1.00
15296;DHT22;7749;49.964;7.890;2023-06-10T07:15:57;22.20;99.90
15296;DHT22;7749;49.964;7.890;2023-06-10T07:18:24;22.30;1.00
15296;DHT22;7749;49.964;7.890;2023-06-10T07:20:52;22.30;1.00
15296;DHT22;7749;49.964;7.890;2023-06-10T07:23:19;22.50;1.00
15296;DHT22;7749;49.964;7.890;2023-06-10T07:25:47;22.60;99.90
15296;DHT22;7749;49.964;7.890;2023-06-10T07:28:14;22.70;1.00
15296;DHT22;7749;49.964;7.890;2023-06-10T07:30:42;22.90;99.90
15296;DHT22;7749;49.964;7.890;2023-06-10T07:33:12;22.90;1.00
15296;DHT22;7749;49.964;7.890;2023-06-10T07:35:40;23.00;1.00
15296;DHT22;7749;49.964;7.890;2023-06-10T07:38:10;23.10;99.90
15296;DHT22;7749;49.964;7.890;2023-06-10T07:40:37;23.10;99.90
15296;DHT22;7749;49.964;7.890;2023-06-10T07:43:04;23.20;99.90
15296;DHT22;7749;49.964;7.890;2023-06-10T07:45:32;23.40;21.90
15296;DHT22;7749;49.964;7.890;2023-06-10T07:47:59;23.80;1.00
15296;DHT22;7749;49.964;7.890;2023-06-10T07:50:27;24.00;1.00
15296;DHT22;7749;49.964;7.890;2023-06-10T07:52:55;24.10;1.00
15296;DHT22;7749;49.964;7.890;2023-06-10T07:55:23;24.20;1.00
15296;DHT22;7749;49.964;7.890;2023-06-10T07:57:53;24.20;99.90
15296;DHT22;7749;49.964;7.890;2023-06-10T08:00:21;24.40;99.90
15296;DHT22;7749;49.964;7.890;2023-06-10T08:02:48;24.40;99.90
15296;DHT22;7749;49.964;7.890;2023-06-10T08:05:16;24.30;99.90
15296;DHT22;7749;49.964;7.890;2023-06-10T08:07:47;24.40;99.90
15296;DHT22;7749;49.964;7.890;2023-06-10T08:10:14;24.60;99.90
15296;DHT22;7749;49.964;7.890;2023-06-10T08:12:42;24.80;99.90
15296;DHT22;7749;49.964;7.890;2023-06-10T08:15:09;25.00;99.90
15296;DHT22;7749;49.964;7.890;2023-06-10T08:17:38;24.80;76.70
15296;DHT22;7749;49.964;7.890;2023-06-10T08:20:06;25.00;62.50
15296;DHT22;7749;49.964;7.890;2023-06-10T08:22:34;25.10;1.00
15296;DHT22;7749;49.964;7.890;2023-06-10T08:25:01;25.40;1.00
15296;DHT22;7749;49.964;7.890;2023-06-10T08:27:29;25.50;1.00
15296;DHT22;7749;49.964;7.890;2023-06-10T08:29:56;25.70;1.00
15296;DHT22;7749;49.964;7.890;2023-06-10T08:32:23;25.80;1.00
15296;DHT22;7749;49.964;7.890;2023-06-10T08:34:51;26.00;1.00
15296;DHT22;7749;49.964;7.890;2023-06-10T08:37:18;26.30;1.00
15296;DHT22;7749;49.964;7.890;2023-06-10T08:39:46;26.40;99.90
15296;DHT22;7749;49.964;7.890;2023-06-10T08:44:56;26.80;99.90
15296;DHT22;7749;49.964;7.890;2023-06-10T08:47:25;27.00;99.90
15296;DHT22;7749;49.964;7.890;2023-06-10T08:49:57;27.10;99.90
15296;DHT22;7749;49.964;7.890;2023-06-10T08:52:36;27.20;99.90
15296;DHT22;7749;49.964;7.890;2023-06-10T08:55:23;27.10;99.90
15296;DHT22;7749;49.964;7.890;2023-06-10T08:57:58;27.20;99.90
15296;DHT22;7749;49.964;7.890;2023-06-10T09:00:26;27.20;99.90
15296;DHT22;7749;49.964;7.890;2023-06-10T09:02:56;27.20;99.90
15296;DHT22;7749;49.964;7.890;2023-06-10T09:05:24;27.40;99.90
15296;DHT22;7749;49.964;7.890;2023-06-10T09:07:52;27.50;99.90
15296;DHT22;7749;49.964;7.890;2023-06-10T09:10:19;27.70;99.90
15296;DHT22;7749;49.964;7.890;2023-06-10T09:12:47;27.80;99.90
15296;DHT22;7749;49.964;7.890;2023-06-10T09:15:14;28.00;99.90
15296;DHT22;7749;49.964;7.890;2023-06-10T09:17:44;28.00;99.90
15296;DHT22;7749;49.964;7.890;2023-06-10T09:20:15;28.10;99.90
15296;DHT22;7749;49.964;7.890;2023-06-10T09:22:43;28.00;99.90
15296;DHT22;7749;49.964;7.890;2023-06-10T09:25:12;28.00;99.90
15296;DHT22;7749;49.964;7.890;2023-06-10T09:30:32;28.10;99.90
15296;DHT22;7749;49.964;7.890;2023-06-10T09:33:02;28.20;99.90
15296;DHT22;7749;49.964;7.890;2023-06-10T09:35:30;28.10;99.90
15296;DHT22;7749;49.964;7.890;2023-06-10T09:37:59;28.10;99.90
15296;DHT22;7749;49.964;7.890;2023-06-10T09:40:27;28.20;99.90
15296;DHT22;7749;49.964;7.890;2023-06-10T09:42:57;28.40;99.90
15296;DHT22;7749;49.964;7.890;2023-06-10T09:45:30;28.60;99.90
15296;DHT22;7749;49.964;7.890;2023-06-10T09:48:01;28.70;99.90
15296;DHT22;7749;49.964;7.890;2023-06-10T09:50:33;28.80;99.90
15296;DHT22;7749;49.964;7.890;2023-06-10T09:53:01;29.00;99.90
15296;DHT22;7749;49.964;7.890;2023-06-10T09:55:33;28.90;99.90
15296;DHT22;7749;49.964;7.890;2023-06-10T09:58:00;29.00;99.90
15296;DHT22;7749;49.964;7.890;2023-06-10T10:00:28;29.10;99.90
15296;DHT22;7749;49.964;7.890;2023-06-10T10:02:55;29.30;99.90
15296;DHT22;7749;49.964;7.890;2023-06-10T10:05:23;29.40;99.90
15296;DHT22;7749;49.964;7.890;2023-06-10T10:07:51;29.40;99.90
15296;DHT22;7749;49.964;7.890;2023-06-10T10:10:20;29.50;99.90
15296;DHT22;7749;49.964;7.890;2023-06-10T10:12:54;29.50;99.90
15296;DHT22;7749;49.964;7.890;2023-06-10T10:15:28;29.70;99.90
15296;DHT22;7749;49.964;7.890;2023-06-10T10:18:10;29.80;99.90
15296;DHT22;7749;49.964;7.890;2023-06-10T10:20:50;29.80;99.90
15296;DHT22;7749;49.964;7.890;2023-06-10T10:23:24;29.80;99.90
15296;DHT22;7749;49.964;7.890;2023-06-10T10:25:54;29.90;99.90
15296;DHT22;7749;49.964;7.890;2023-06-10T10:28:24;30.10;99.90
15296;DHT22;7749;49.964;7.890;2023-06-10T10:31:01;30.20;99.90
15296;DHT22;7749;49.964;7.890;2023-06-10T10:33:45;30.10;99.90
15296;DHT22;7749;49.964;7.890;2023-06-10T10:36:14;30.20;99.90
15296;DHT22;7749;49.964;7.890;2023-06-10T10:38:42;30.40;99.90
15296;DHT22;7749;49.964;7.890;2023-06-10T10:41:10;30.40;99.90
15296;DHT22;7749;49.964;7.890;2023-06-10T10:43:38;30.40;99.90
15296;DHT22;7749;49.964;7.890;2023-06-10T10:46:12;30.50;99.90
15296;DHT22;7749;49.964;7.890;2023-06-10T10:48:40;30.70;99.90
15296;DHT22;7749;49.964;7.890;2023-06-10T10:51:11;30.70;99.90
15296;DHT22;7749;49.964;7.890;2023-06-10T10:53:39;30.70;99.90
15296;DHT22;7749;49.964;7.890;2023-06-10T10:56:16;31.00;99.90
15296;DHT22;7749;49.964;7.890;2023-06-10T10:59:04;31.10;99.90
15296;DHT22;7749;49.964;7.890;2023-06-10T11:01:42;31.40;99.90
15296;DHT22;7749;49.964;7.890;2023-06-10T11:04:13;31.50;99.90
15296;DHT22;7749;49.964;7.890;2023-06-10T11:06:52;32.00;99.90
15296;DHT22;7749;49.964;7.890;2023-06-10T11:09:27;32.40;99.90
15296;DHT22;7749;49.964;7.890;2023-06-10T11:11:59;32.70;99.90
15296;DHT22;7749;49.964;7.890;2023-06-10T11:14:30;33.10;97.90
15296;DHT22;7749;49.964;7.890;2023-06-10T11:16:58;33.30;94.00
15296;DHT22;7749;49.964;7.890;2023-06-10T11:19:36;33.20;91.60
15296;DHT22;7749;49.964;7.890;2023-06-10T11:22:07;33.10;88.10
15296;DHT22;7749;49.964;7.890;2023-06-10T11:24:35;33.30;83.10
15296;DHT22;7749;49.964;7.890;2023-06-10T11:27:22;34.60;65.70
15296;DHT22;7749;49.964;7.890;2023-06-10T11:32:31;37.30;17.40
15296;DHT22;7749;49.964;7.890;2023-06-10T11:35:04;38.40;20.00
15296;DHT22;7749;49.964;7.890;2023-06-10T11:37:32;39.70;1.00
15296;DHT22;7749;49.964;7.890;2023-06-10T11:39:59;41.10;1.00
15296;DHT22;7749;49.964;7.890;2023-06-10T11:42:27;41.80;1.00
15296;DHT22;7749;49.964;7.890;2023-06-10T11:44:55;42.10;1.00
15296;DHT22;7749;49.964;7.890;2023-06-10T11:47:22;42.20;1.00
15296;DHT22;7749;49.964;7.890;2023-06-10T11:49:56;42.30;1.00
15296;DHT22;7749;49.964;7.890;2023-06-10T11:52:30;43.50;1.00
15296;DHT22;7749;49.964;7.890;2023-06-10T11:54:59;43.40;1.00
15296;DHT22;7749;49.964;7.890;2023-06-10T11:57:27;43.60;1.00
15296;DHT22;7749;49.964;7.890;2023-06-10T11:59:54;44.10;1.00
15296;DHT22;7749;49.964;7.890;2023-06-10T12:02:22;44.30;1.00
15296;DHT22;7749;49.964;7.890;2023-06-10T12:04:50;44.20;1.00
15296;DHT22;7749;49.964;7.890;2023-06-10T12:07:18;43.70;1.00
15296;DHT22;7749;49.964;7.890;2023-06-10T12:09:59;42.20;1.00
15296;DHT22;7749;49.964;7.890;2023-06-10T12:12:45;42.30;1.00
15296;DHT22;7749;49.964;7.890;2023-06-10T12:15:24;41.90;1.00
15296;DHT22;7749;49.964;7.890;2023-06-10T12:17:52;42.90;1.00
15296;DHT22;7749;49.964;7.890;2023-06-10T12:20:32;43.20;1.00
15296;DHT22;7749;49.964;7.890;2023-06-10T12:23:09;42.70;1.00
15296;DHT22;7749;49.964;7.890;2023-06-10T12:25:37;40.60;1.00
15296;DHT22;7749;49.964;7.890;2023-06-10T12:28:10;40.40;1.00
15296;DHT22;7749;49.964;7.890;2023-06-10T12:30:37;39.60;1.00
15296;DHT22;7749;49.964;7.890;2023-06-10T12:33:18;40.80;1.00
15296;DHT22;7749;49.964;7.890;2023-06-10T12:35:52;41.00;1.00
15296;DHT22;7749;49.964;7.890;2023-06-10T12:38:23;39.70;1.00
15296;DHT22;7749;49.964;7.890;2023-06-10T12:40:51;38.40;1.00
15296;DHT22;7749;49.964;7.890;2023-06-10T12:43:20;38.40;1.00
15296;DHT22;7749;49.964;7.890;2023-06-10T12:45:48;39.80;1.00
15296;DHT22;7749;49.964;7.890;2023-06-10T12:50:55;43.20;1.00
15296;DHT22;7749;49.964;7.890;2023-06-10T12:53:24;44.60;1.00
15296;DHT22;7749;49.964;7.890;2023-06-10T12:55:53;45.80;1.00
15296;DHT22;7749;49.964;7.890;2023-06-10T12:58:21;46.10;1.00
15296;DHT22;7749;49.964;7.890;2023-06-10T13:00:49;45.90;1.00
15296;DHT22;7749;49.964;7.890;2023-06-10T13:03:20;45.40;1.00
15296;DHT22;7749;49.964;7.890;2023-06-10T13:05:48;44.70;1.00
15296;DHT22;7749;49.964;7.890;2023-06-10T13:08:16;44.20;1.00
15296;DHT22;7749;49.964;7.890;2023-06-10T13:10:43;44.00;1.00
15296;DHT22;7749;49.964;7.890;2023-06-10T13:13:10;44.90;1.00
15296;DHT22;7749;49.964;7.890;2023-06-10T13:15:38;45.90;1.00
15296;DHT22;7749;49.964;7.890;2023-06-10T13:18:10;45.90;1.00
15296;DHT22;7749;49.964;7.890;2023-06-10T13:20:37;45.50;1.00
15296;DHT22;7749;49.964;7.890;2023-06-10T13:23:05;46.60;1.00
15296;DHT22;7749;49.964;7.890;2023-06-10T13:25:32;46.90;1.00
15296;DHT22;7749;49.964;7.890;2023-06-10T13:28:00;45.50;1.00
15296;DHT22;7749;49.964;7.890;2023-06-10T13:30:27;43.50;1.00
15296;DHT22;7749;49.964;7.890;2023-06-10T13:32:54;41.40;1.00
15296;DHT22;7749;49.964;7.890;2023-06-10T13:35:22;41.50;1.00
15296;DHT22;7749;49.964;7.890;2023-06-10T13:37:49;42.90;1.00
15296;DHT22;7749;49.964;7.890;2023-06-10T13:40:17;44.20;1.00
15296;DHT22;7749;49.964;7.890;2023-06-10T13:42:46;45.10;1.00
15296;DHT22;7749;49.964;7.890;2023-06-10T13:45:18;46.10;1.00
15296;DHT22;7749;49.964;7.890;2023-06-10T13:47:45;45.80;1.00
15296;DHT22;7749;49.964;7.890;2023-06-10T13:50:13;44.70;1.00
15296;DHT22;7749;49.964;7.890;2023-06-10T13:52:40;44.50;1.00
15296;DHT22;7749;49.964;7.890;2023-06-10T13:55:10;44.10;1.00
15296;DHT22;7749;49.964;7.890;2023-06-10T13:57:37;42.90;1.00
15296;DHT22;7749;49.964;7.890;2023-06-10T14:00:05;40.70;1.00
15296;DHT22;7749;49.964;7.890;2023-06-10T14:02:37;39.00;1.00
15296;DHT22;7749;49.964;7.890;2023-06-10T14:05:06;37.50;1.00
15296;DHT22;7749;49.964;7.890;2023-06-10T14:07:35;37.40;1.00
15296;DHT22;7749;49.964;7.890;2023-06-10T14:10:04;38.00;1.00
15296;DHT22;7749;49.964;7.890;2023-06-10T14:12:35;40.30;1.00
15296;DHT22;7749;49.964;7.890;2023-06-10T14:15:02;42.60;1.00
15296;DHT22;7749;49.964;7.890;2023-06-10T14:17:30;44.20;1.00
15296;DHT22;7749;49.964;7.890;2023-06-10T14:19:57;45.10;1.00
15296;DHT22;7749;49.964;7.890;2023-06-10T14:22:25;46.00;1.00
15296;DHT22;7749;49.964;7.890;2023-06-10T14:24:52;45.20;1.00
15296;DHT22;7749;49.964;7.890;2023-06-10T14:27:20;44.50;1.00
15296;DHT22;7749;49.964;7.890;2023-06-10T14:29:47;45.20;1.00
15296;DHT22;7749;49.964;7.890;2023-06-10T14:32:15;45.10;1.00
15296;DHT22;7749;49.964;7.890;2023-06-10T14:34:42;44.50;1.00
15296;DHT22;7749;49.964;7.890;2023-06-10T14:37:11;43.20;1.00
15296;DHT22;7749;49.964;7.890;2023-06-10T14:39:38;43.00;1.00
15296;DHT22;7749;49.964;7.890;2023-06-10T14:42:07;43.80;1.00
15296;DHT22;7749;49.964;7.890;2023-06-10T14:44:35;44.10;1.00
15296;DHT22;7749;49.964;7.890;2023-06-10T14:47:03;44.30;1.00
15296;DHT22;7749;49.964;7.890;2023-06-10T14:49:33;44.80;1.00
15296;DHT22;7749;49.964;7.890;2023-06-10T14:52:00;45.80;1.00
15296;DHT22;7749;49.964;7.890;2023-06-10T14:54:30;46.70;1.00
15296;DHT22;7749;49.964;7.890;2023-06-10T14:56:57;47.80;1.00
15296;DHT22;7749;49.964;7.890;2023-06-10T14:59:25;47.40;1.00
15296;DHT22;7749;49.964;7.890;2023-06-10T15:01:52;46.80;1.00
15296;DHT22;7749;49.964;7.890;2023-06-10T15:04:19;46.60;1.00
15296;DHT22;7749;49.964;7.890;2023-06-10T15:06:50;47.50;1.00
15296;DHT22;7749;49.964;7.890;2023-06-10T15:09:20;47.70;1.00
15296;DHT22;7749;49.964;7.890;2023-06-10T15:11:48;47.80;1.00
15296;DHT22;7749;49.964;7.890;2023-06-10T15:14:15;48.30;1.00
15296;DHT22;7749;49.964;7.890;2023-06-10T15:16:43;48.40;1.00
15296;DHT22;7749;49.964;7.890;2023-06-10T15:19:10;48.60;1.00
15296;DHT22;7749;49.964;7.890;2023-06-10T15:21:38;48.50;1.00
15296;DHT22;7749;49.964;7.890;2023-06-10T15:24:05;48.00;1.00
15296;DHT22;7749;49.964;7.890;2023-06-10T15:26:33;48.10;1.00
15296;DHT22;7749;49.964;7.890;2023-06-10T15:29:00;48.50;1.00
15296;DHT22;7749;49.964;7.890;2023-06-10T15:31:31;48.10;1.00
15296;DHT22;7749;49.964;7.890;2023-06-10T15:33:59;48.80;1.00
15296;DHT22;7749;49.964;7.890;2023-06-10T15:36:26;48.70;1.00
15296;DHT22;7749;49.964;7.890;2023-06-10T15:38:54;47.80;1.00
15296;DHT22;7749;49.964;7.890;2023-06-10T15:41:23;48.00;1.00
15296;DHT22;7749;49.964;7.890;2023-06-10T15:43:50;47.60;1.00
15296;DHT22;7749;49.964;7.890;2023-06-10T15:46:18;47.90;1.00
15296;DHT22;7749;49.964;7.890;2023-06-10T15:48:45;47.60;1.00
15296;DHT22;7749;49.964;7.890;2023-06-10T15:51:13;47.80;1.00
15296;DHT22;7749;49.964;7.890;2023-06-10T15:53:41;47.60;1.00
15296;DHT22;7749;49.964;7.890;2023-06-10T15:56:09;46.80;1.00
15296;DHT22;7749;49.964;7.890;2023-06-10T15:58:36;46.60;1.00
15296;DHT22;7749;49.964;7.890;2023-06-10T16:01:04;46.80;1.00
15296;DHT22;7749;49.964;7.890;2023-06-10T16:03:32;44.80;1.00
15296;DHT22;7749;49.964;7.890;2023-06-10T16:05:59;42.60;1.00
15296;DHT22;7749;49.964;7.890;2023-06-10T16:08:27;40.80;1.00
15296;DHT22;7749;49.964;7.890;2023-06-10T16:10:54;39.20;1.00
15296;DHT22;7749;49.964;7.890;2023-06-10T16:13:24;37.60;1.00
15296;DHT22;7749;49.964;7.890;2023-06-10T16:15:51;36.90;1.00
15296;DHT22;7749;49.964;7.890;2023-06-10T16:18:21;37.30;1.00
15296;DHT22;7749;49.964;7.890;2023-06-10T16:20:49;37.00;1.00